Zaliv Amurskiy — D5MC6 — position and weather

sailwx.info

Track history (hours):
 
Tides and Currents Weather Stations Pressure Air Temp Water Temp Dewpoint Dewpoint Depression Visibility Wind Speed Wind Dir Waves Ship Positions

Zaliv Amurskiy

Last reported at 2018-Jan-10 10:37 UTC. Time now 2018-Jan-21 10:48 UTC.
Position S 39°26' E 145°36'.
Warning: this ship's position is 11 days out of date.

Length 756 m; draft 12.5 m.

Type: Tanker. MMSI: 636017658.

Date/timePositionNaut miles runAvg speedWind from/ knotsBaromVisibWave heightAir tempDewpointWater temp
2018-Jan-10 10:37S 39°26' E 145°36'214.1
2018-Jan-10 10:30S 39°26' E 145°39'8813.6
2018-Jan-10 04:04S 39°31' E 147°32'16212.8
2018-Jan-09 15:24S 37°48' E 150°12'  
2018-Jan-03 21:31S 33°50' E 151°20'111.6
2018-Jan-03 21:27S 33°50' E 151°22'4 9.1
2018-Jan-03 21:01S 33°50' E 151°26'5 9.2
2018-Jan-03 20:30S 33°49' E 151°32'6 0.5
2018-Jan-03 08:44S 33°53' E 151°37'8 0.2
2018-Jan-02 01:42S 33°52' E 151°28'1 3.0
2018-Jan-02 01:30S 33°51' E 151°27'0 0.9
2018-Jan-02 00:59S 33°51' E 151°27'0 0.8
2018-Jan-02 00:27S 33°51' E 151°28'0 0.7
2018-Jan-02 00:00S 33°51' E 151°28'0 0.7
2018-Jan-01 23:30S 33°51' E 151°29'0 0.7
2018-Jan-01 23:00S 33°51' E 151°29'0 0.7
2018-Jan-01 22:30S 33°51' E 151°29'0 0.6
2018-Jan-01 21:52S 33°51' E 151°30'0 0.7
2018-Jan-01 21:30S 33°51' E 151°30'1 1.1
2018-Jan-01 21:00S 33°51' E 151°31'1 2.0
2018-Jan-01 20:28S 33°51' E 151°32'5710.5
2018-Jan-01 15:00S 33°09' E 152°19'510.4
2018-Jan-01 14:30S 33°05' E 152°24'510.6
2018-Jan-01 14:00S 33°02' E 152°28'510.8
2018-Jan-01 13:30S 32°58' E 152°32'511.0
2018-Jan-01 13:00S 32°54' E 152°37'1211.7
2018-Jan-01 12:00S 32°45' E 152°46'713.3
2018-Jan-01 11:30S 32°39' E 152°50'24811.9
2017-Dec-31 14:37S 28°38' E 153°59'111.4
2017-Dec-31 14:31S 28°37' E 153°59'611.6
2017-Dec-31 14:00S 28°31' E 154°00'611.6
2017-Dec-31 13:30S 28°25' E 154°01'611.7
2017-Dec-31 13:00S 28°19' E 154°02'611.5
2017-Dec-31 12:30S 28°14' E 154°03'611.2
2017-Dec-31 12:01S 28°08' E 154°03'510.9
2017-Dec-31 11:31S 28°03' E 154°04'611.0
2017-Dec-31 11:01S 27°57' E 154°05'  
Track history (hours):
 
Tides and Currents Weather Stations Pressure Air Temp Water Temp Dewpoint Dewpoint Depression Visibility Wind Speed Wind Dir Waves Ship Positions

Zaliv Amurskiy

Last reported at 2018-Jan-10 10:37 UTC. Time now 2018-Jan-21 10:48 UTC.
Position S 39°26' E 145°36'.
Warning: this ship's position is 11 days out of date.

Length 756 m; draft 12.5 m.

Type: Tanker. MMSI: 636017658.

Date/timePositionNaut miles runAvg speedWind from/ knotsBaromVisibWave heightAir tempDewpointWater temp
2018-Jan-10 10:37S 39°26' E 145°36'214.1
2018-Jan-10 10:30S 39°26' E 145°39'8813.6
2018-Jan-10 04:04S 39°31' E 147°32'16212.8
2018-Jan-09 15:24S 37°48' E 150°12'  
2018-Jan-03 21:31S 33°50' E 151°20'111.6
2018-Jan-03 21:27S 33°50' E 151°22'4 9.1
2018-Jan-03 21:01S 33°50' E 151°26'5 9.2
2018-Jan-03 20:30S 33°49' E 151°32'6 0.5
2018-Jan-03 08:44S 33°53' E 151°37'8 0.2
2018-Jan-02 01:42S 33°52' E 151°28'1 3.0
2018-Jan-02 01:30S 33°51' E 151°27'0 0.9
2018-Jan-02 00:59S 33°51' E 151°27'0 0.8
2018-Jan-02 00:27S 33°51' E 151°28'0 0.7
2018-Jan-02 00:00S 33°51' E 151°28'0 0.7
2018-Jan-01 23:30S 33°51' E 151°29'0 0.7
2018-Jan-01 23:00S 33°51' E 151°29'0 0.7
2018-Jan-01 22:30S 33°51' E 151°29'0 0.6
2018-Jan-01 21:52S 33°51' E 151°30'0 0.7
2018-Jan-01 21:30S 33°51' E 151°30'1 1.1
2018-Jan-01 21:00S 33°51' E 151°31'1 2.0
2018-Jan-01 20:28S 33°51' E 151°32'5710.5
2018-Jan-01 15:00S 33°09' E 152°19'510.4
2018-Jan-01 14:30S 33°05' E 152°24'510.6
2018-Jan-01 14:00S 33°02' E 152°28'510.8
2018-Jan-01 13:30S 32°58' E 152°32'511.0
2018-Jan-01 13:00S 32°54' E 152°37'1211.7
2018-Jan-01 12:00S 32°45' E 152°46'713.3
2018-Jan-01 11:30S 32°39' E 152°50'24811.9
2017-Dec-31 14:37S 28°38' E 153°59'111.4
2017-Dec-31 14:31S 28°37' E 153°59'611.6
2017-Dec-31 14:00S 28°31' E 154°00'611.6
2017-Dec-31 13:30S 28°25' E 154°01'611.7
2017-Dec-31 13:00S 28°19' E 154°02'611.5
2017-Dec-31 12:30S 28°14' E 154°03'611.2
2017-Dec-31 12:01S 28°08' E 154°03'510.9
2017-Dec-31 11:31S 28°03' E 154°04'611.0
2017-Dec-31 11:01S 27°57' E 154°05'  

Dump ship's entire track history